Main page
METAR-TAF:

METAR-TAF

Airports :

Saga Airport

Saga, Japan

latitude: 33-09N, longitude: 130-18E, elevation: 2 m

Current weather observation

The report was made 5 hours and 20 minutes ago, at 14:00 UTC
Wind 7 kt from the West/Northwest
Temperature 7°C
Humidity 87%
Pressure 1016 hPa
Visibility 10 km or more
Few clouds at a height of 2500 ft
Broken clouds at a height of 7000 ft

METAR: RJFS 171400Z 29007KT 9999 FEW025 BKN070 07/05 Q1016

Time: 04:20 (19:20 UTC)

Forecast

The report was made 2 hours and 13 minutes ago, at 17:07 UTC
Forecast valid from 17 at 18 UTC to 19 at 00 UTC
Wind 8 kt from the West/Northwest
Visibility 10 km or more
Few clouds at a height of 2500 ft
Becoming
from 18 at 09 UTC to 18 at 12 UTC
Wind 5 kt from the North/Northeast

TAF: RJFS 171707Z 1718/1900 29008KT 9999 FEW025 BECMG 1809/1812 03005KT

Weather observations and forecasts of more than 4000 airports (METAR and TAF reports).

The available stations are represented by yellow and red dots on the map.

Hover mouse over dot to see the name of the station.

Then click to see weather observations and forecasts.

To change the map : click on the green buttons with a black cross to zoom in, on the green button with a dash to zoom out, or on the green arrows for adjacent maps.


METAR-TAF: